Terminal Aerodrome Forecast
Issued by NWS

Home | Current Version | Previous Version | Text Only | Print | Product List | Glossary On
Versions: 1 2 3 4 5 6 7 8 9 10 11 12 13 14
405
FTUS44 KTSA 051720
TAFXNA
TAF
KXNA 051720Z 0518/0618 21009KT P6SM SCT250
     FM060000 17003KT P6SM SCT150
     FM061200 22005KT P6SM BKN050=

USA.gov is the U.S. government's official web portal to all federal, state and local government web resources and services.